Time;durP1;ratioP1;P1;durP2;ratioP2;P2;SDS_P1;SDS_P2;PMS_P1;PMS_P2;Temp;Humidity;BMP_temperature;BMP_pressure;BME280_temperature;BME280_humidity;BME280_pressure;Samples;Min_cycle;Max_cycle;Signal;HPM_P1;HPM_P2
2021/11/12 00:12:58;;;;;;;4.78;1.70;;;1.00;99.90;;;;;;5120351;27;20038;-64
2021/11/12 00:15:24;;;;;;;3.35;0.88;;;1.00;99.90;;;;;;5127012;27;20028;-64
2021/11/12 00:17:50;;;;;;;4.43;0.90;;;1.10;99.90;;;;;;5124896;27;20038;-64
2021/11/12 00:20:16;;;;;;;1.50;1.00;;;1.10;99.90;;;;;;5118094;27;20015;-64
2021/11/12 00:22:41;;;;;;;1.45;0.82;;;1.00;99.90;;;;;;5112508;28;20028;-64
2021/11/12 00:25:07;;;;;;;1.75;0.90;;;1.00;99.90;;;;;;5124568;27;20055;-64
2021/11/12 00:27:34;;;;;;;3.13;1.10;;;0.90;99.90;;;;;;5118597;27;20019;-64
2021/11/12 00:35:26;;;;;;;0.80;0.80;;;0.90;99.90;;;;;;5112553;28;20115;-64
2021/11/12 00:40:30;;;;;;;0.98;0.70;;;0.90;99.90;;;;;;5124286;27;20046;-64
2021/11/12 00:45:30;;;;;;;3.20;0.88;;;0.70;99.90;;;;;;5124160;27;20541;-64
2021/11/12 00:48:00;;;;;;;1.52;0.90;;;0.70;99.90;;;;;;5118164;27;20026;-64
2021/11/12 00:50:40;;;;;;;2.23;0.80;;;0.70;99.90;;;;;;5121714;27;20485;-64
2021/11/12 00:55:39;;;;;;;2.13;0.80;;;0.80;99.90;;;;;;5121282;28;20048;-64
2021/11/12 00:58:11;;;;;;;0.93;0.82;;;0.70;99.90;;;;;;5125157;28;20106;-64
2021/11/12 01:00:37;;;;;;;2.65;1.05;;;0.70;99.90;;;;;;5111982;28;20026;-64
2021/11/12 01:03:04;;;;;;;0.80;0.80;;;0.70;99.90;;;;;;5125832;28;20043;-65
2021/11/12 01:05:30;;;;;;;2.17;0.90;;;0.70;99.90;;;;;;5120617;28;20459;-65
2021/11/12 01:07:59;;;;;;;2.25;1.00;;;0.70;99.90;;;;;;5117932;28;20028;-65
2021/11/12 01:10:26;;;;;;;1.35;0.85;;;0.70;99.90;;;;;;5125428;28;20028;-65
2021/11/12 01:12:52;;;;;;;1.67;0.80;;;0.70;99.90;;;;;;5125037;28;20485;-65
2021/11/12 01:15:20;;;;;;;3.60;0.85;;;0.70;99.90;;;;;;5117783;28;20080;-65
2021/11/12 01:17:46;;;;;;;0.70;0.70;;;0.70;99.90;;;;;;5120512;28;20027;-65
2021/11/12 01:20:15;;;;;;;1.23;0.82;;;0.70;99.90;;;;;;5125912;28;20020;-65
2021/11/12 01:22:41;;;;;;;1.00;0.73;;;0.60;99.90;;;;;;5126621;27;20054;-65
2021/11/12 01:25:12;;;;;;;1.67;0.82;;;0.60;99.90;;;;;;5115511;28;20026;-65
2021/11/12 01:27:39;;;;;;;1.08;0.73;;;0.60;99.90;;;;;;5130462;27;20090;-66
2021/11/12 01:30:06;;;;;;;1.33;0.70;;;0.60;99.90;;;;;;5126625;27;20119;-66
2021/11/12 01:32:32;;;;;;;0.95;0.85;;;0.60;99.90;;;;;;5121517;27;20215;-66
2021/11/12 01:35:00;;;;;;;1.95;0.68;;;0.50;99.90;;;;;;5126848;27;20099;-66
2021/11/12 01:37:27;;;;;;;2.00;0.75;;;0.50;99.90;;;;;;5128779;27;20035;-65
2021/11/12 01:39:57;;;;;;;2.20;0.80;;;0.50;99.90;;;;;;5135774;27;20015;-65
2021/11/12 01:42:26;;;;;;;3.03;1.27;;;0.50;99.90;;;;;;5132044;27;20111;-65
2021/11/12 01:45:07;;;;;;;0.70;0.70;;;0.50;99.90;;;;;;5121401;27;20051;-65
2021/11/12 01:50:16;;;;;;;2.33;0.80;;;0.50;99.90;;;;;;5127178;27;20490;-65
2021/11/12 01:52:45;;;;;;;3.95;0.90;;;0.50;99.90;;;;;;5129606;27;20118;-65
2021/11/12 01:56:09;;;;;;;1.02;0.65;;;0.50;99.90;;;;;;5123930;27;20027;-65
2021/11/12 02:00:29;;;;;;;0.70;0.70;;;0.50;99.90;;;;;;5124981;27;20054;-65
2021/11/12 02:02:59;;;;;;;2.83;0.95;;;0.50;99.90;;;;;;5120851;27;20051;-65
2021/11/12 02:05:25;;;;;;;1.25;0.75;;;0.50;99.90;;;;;;5127116;27;20027;-65
2021/11/12 02:07:52;;;;;;;1.70;0.55;;;0.50;99.90;;;;;;5129424;27;20475;-65
2021/11/12 02:10:22;;;;;;;0.73;0.70;;;0.50;99.90;;;;;;5121573;27;20466;-65
2021/11/12 02:13:03;;;;;;;;;;;0.50;99.90;;;;;;5135559;27;20054;-64
2021/11/12 02:15:32;;;;;;;1.20;0.68;;;0.60;99.90;;;;;;5114859;28;20416;-64
2021/11/12 02:18:07;;;;;;;1.15;0.80;;;0.60;99.90;;;;;;5128568;27;20030;-65
2021/11/12 02:23:02;;;;;;;1.85;0.70;;;0.60;99.90;;;;;;5127501;27;20027;-65
2021/11/12 02:52:08;;;;;;;0.60;0.60;;;0.50;99.90;;;;;;5120536;27;20172;-64
2021/11/12 02:54:35;;;;;;;1.55;0.93;;;0.50;99.90;;;;;;5128357;27;20026;-64
2021/11/12 02:57:03;;;;;;;1.30;0.88;;;0.40;99.90;;;;;;5113940;28;20639;-64
2021/11/12 02:59:29;;;;;;;1.50;0.90;;;0.40;99.90;;;;;;5117800;27;20047;-64
2021/11/12 03:02:02;;;;;;;0.80;0.80;;;0.40;99.90;;;;;;5134377;27;20050;-64
2021/11/12 03:04:27;;;;;;;2.20;0.90;;;0.40;99.90;;;;;;5134392;27;20477;-64
2021/11/12 03:06:53;;;;;;;0.98;0.82;;;0.40;99.90;;;;;;5134322;27;20106;-64
2021/11/12 03:09:24;;;;;;;2.17;0.70;;;0.40;99.90;;;;;;5133264;27;20059;-64
2021/11/12 03:11:49;;;;;;;1.23;0.70;;;0.40;99.90;;;;;;5121908;27;20117;-65
2021/11/12 03:14:16;;;;;;;1.63;0.82;;;0.40;99.90;;;;;;5120441;27;20103;-65
2021/11/12 03:16:42;;;;;;;1.88;0.93;;;0.30;99.90;;;;;;5128085;27;20028;-65
2021/11/12 03:19:09;;;;;;;2.10;0.70;;;0.30;99.90;;;;;;5125577;27;20106;-65
2021/11/12 03:21:38;;;;;;;0.95;0.90;;;0.40;99.90;;;;;;5119729;27;20039;-65
2021/11/12 03:24:17;;;;;;;2.88;0.98;;;0.40;99.90;;;;;;5123192;27;20020;-65
2021/11/12 04:05:09;;;;;;;1.35;0.80;;;0.40;99.90;;;;;;5117098;27;20039;-65
2021/11/12 04:18:29;;;;;;;1.20;0.80;;;0.30;99.90;;;;;;5131280;27;20057;-66
2021/11/12 04:40:10;;;;;;;0.85;0.85;;;0.10;99.90;;;;;;5112422;28;20049;-64
2021/11/12 05:10:18;;;;;;;0.90;0.90;;;0.00;99.90;;;;;;5133260;27;20436;-65
2021/11/12 05:13:00;;;;;;;1.23;0.90;;;0.10;99.90;;;;;;5132211;27;20104;-65
2021/11/12 05:55:44;;;;;;;0.90;0.90;;;1.70;99.90;;;;;;5123165;27;20043;-68
2021/11/12 05:58:10;;;;;;;1.02;0.90;;;1.40;99.90;;;;;;5135310;27;20407;-66
2021/11/12 06:00:36;;;;;;;0.60;0.60;;;1.20;99.90;;;;;;5134040;27;20019;-66
2021/11/12 06:03:01;;;;;;;1.00;0.85;;;1.00;99.90;;;;;;5125712;27;20092;-65
2021/11/12 06:05:27;;;;;;;0.80;0.80;;;0.90;99.90;;;;;;5125927;27;20323;-66
2021/11/12 06:07:53;;;;;;;0.85;0.70;;;0.80;99.90;;;;;;5126315;27;20027;-66
2021/11/12 06:10:19;;;;;;;2.15;1.10;;;0.80;99.90;;;;;;5128504;27;20104;-65
2021/11/12 06:12:45;;;;;;;1.08;0.95;;;0.80;99.90;;;;;;5130148;27;20055;-65
2021/11/12 06:15:11;;;;;;;0.98;0.93;;;0.80;99.90;;;;;;5124478;27;20080;-65
2021/11/12 06:17:37;;;;;;;0.75;0.75;;;0.70;99.90;;;;;;5128203;27;20509;-66
2021/11/12 06:20:05;;;;;;;1.35;0.95;;;0.60;99.90;;;;;;5120726;27;20019;-66
2021/11/12 06:22:30;;;;;;;1.13;0.90;;;0.60;99.90;;;;;;5128877;27;20483;-66
2021/11/12 06:24:56;;;;;;;1.10;0.70;;;0.60;99.90;;;;;;5131687;27;20025;-68
2021/11/12 06:27:22;;;;;;;0.77;0.77;;;0.60;99.90;;;;;;5127465;27;20503;-66
2021/11/12 06:29:48;;;;;;;0.93;0.80;;;0.70;99.90;;;;;;5130343;27;20497;-66
2021/11/12 06:32:14;;;;;;;1.92;1.00;;;0.70;99.90;;;;;;5122708;27;20031;-66
2021/11/12 06:34:42;;;;;;;3.17;1.00;;;0.60;99.90;;;;;;5123149;27;20058;-66
2021/11/12 06:37:08;;;;;;;1.45;0.82;;;0.50;99.90;;;;;;5127439;27;20024;-66
2021/11/12 06:39:34;;;;;;;3.05;1.20;;;0.40;99.90;;;;;;5126240;27;20015;-67
2021/11/12 06:42:03;;;;;;;1.80;1.35;;;0.30;99.90;;;;;;5122794;27;20479;-67
2021/11/12 06:50:15;;;;;;;2.20;1.40;;;0.30;99.90;;;;;;5124808;27;20031;-67
2021/11/12 06:52:43;;;;;;;1.55;1.40;;;0.20;99.90;;;;;;5132786;27;20031;-67
2021/11/12 06:55:11;;;;;;;1.30;1.10;;;0.00;99.90;;;;;;5134687;27;20023;-67
2021/11/12 06:57:38;;;;;;;1.30;1.17;;;0.00;99.90;;;;;;5134609;27;20031;-67
2021/11/12 07:00:07;;;;;;;2.20;1.27;;;-0.10;99.90;;;;;;5134178;27;20625;-67
2021/11/12 07:02:33;;;;;;;1.83;1.48;;;0.00;99.90;;;;;;5132640;27;20042;-67
2021/11/12 07:04:58;;;;;;;1.50;1.33;;;0.00;99.90;;;;;;5134361;27;20023;-67
2021/11/12 07:07:24;;;;;;;2.42;1.23;;;0.10;99.90;;;;;;5120648;27;20023;-67
2021/11/12 07:09:51;;;;;;;1.92;1.10;;;0.20;99.90;;;;;;5133557;27;20106;-67
2021/11/12 07:12:17;;;;;;;1.00;1.00;;;0.70;99.90;;;;;;5122399;27;20372;-67
2021/11/12 07:14:43;;;;;;;0.75;0.75;;;0.90;99.90;;;;;;5127895;27;20026;-68
2021/11/12 07:17:09;;;;;;;1.23;1.13;;;0.70;99.90;;;;;;5123265;27;20023;-69
2021/11/12 07:19:36;;;;;;;1.00;0.90;;;0.50;99.90;;;;;;5131141;27;20022;-63
2021/11/12 07:22:02;;;;;;;0.98;0.90;;;0.40;99.90;;;;;;5120835;27;20023;-64
2021/11/12 07:24:28;;;;;;;1.45;1.20;;;0.30;99.90;;;;;;5133840;27;20031;-63
2021/11/12 07:26:54;;;;;;;1.38;0.85;;;0.30;99.90;;;;;;5119460;27;20031;-63
2021/11/12 07:29:23;;;;;;;0.85;0.85;;;0.20;99.90;;;;;;5121702;27;20406;-65
2021/11/12 07:31:49;;;;;;;1.08;0.75;;;0.20;99.90;;;;;;5126173;27;20462;-61
2021/11/12 07:34:15;;;;;;;0.60;0.60;;;0.20;99.90;;;;;;5123523;27;20058;-62
2021/11/12 07:36:45;;;;;;;0.80;0.80;;;0.20;99.90;;;;;;5131613;27;20494;-62
2021/11/12 07:44:38;;;;;;;1.00;1.00;;;0.00;99.90;;;;;;5123417;27;20035;-65
2021/11/12 07:47:16;;;;;;;0.90;0.90;;;0.00;99.90;;;;;;5131027;27;20055;-64
2021/11/12 07:49:44;;;;;;;1.42;1.15;;;0.00;99.90;;;;;;5120248;27;20039;-62
2021/11/12 07:52:11;;;;;;;2.33;1.42;;;0.10;99.90;;;;;;5132845;27;20031;-66
2021/11/12 07:54:39;;;;;;;3.80;0.90;;;0.20;99.90;;;;;;5128001;27;20089;-63
2021/11/12 07:57:08;;;;;;;0.80;0.80;;;0.20;99.90;;;;;;5120565;27;20019;-63
2021/11/12 07:59:36;;;;;;;1.38;0.90;;;0.20;99.90;;;;;;5113893;27;20024;-61
2021/11/12 08:02:03;;;;;;;1.05;0.93;;;0.20;99.90;;;;;;5123971;27;20084;-62
2021/11/12 08:04:29;;;;;;;1.65;1.00;;;0.40;99.90;;;;;;5127958;27;20089;-61
2021/11/12 08:06:57;;;;;;;0.65;0.65;;;0.70;99.90;;;;;;5129811;27;20085;-63
2021/11/12 08:09:31;;;;;;;1.00;0.90;;;0.50;99.90;;;;;;5127469;27;20016;-63
2021/11/12 08:12:02;;;;;;;1.08;0.98;;;1.00;99.90;;;;;;5132278;27;20035;-63
2021/11/12 08:14:34;;;;;;;1.58;0.80;;;2.20;99.90;;;;;;5123808;27;20102;-63
2021/11/12 08:17:13;;;;;;;2.05;0.80;;;3.10;99.90;;;;;;5131578;27;20072;-63
2021/11/12 08:22:30;;;;;;;1.15;0.70;;;4.10;99.90;;;;;;5132290;27;20019;-63
2021/11/12 08:25:07;;;;;;;0.90;0.80;;;4.30;99.90;;;;;;5131851;27;20511;-63
2021/11/12 08:30:17;;;;;;;0.80;0.80;;;4.60;99.90;;;;;;5122241;27;20023;-64
2021/11/12 08:46:27;;;;;;;0.70;0.70;;;4.80;99.90;;;;;;5117505;27;20113;-65
2021/11/12 08:51:31;;;;;;;0.70;0.68;;;5.40;99.90;;;;;;5102691;27;20100;-64
2021/11/12 08:53:58;;;;;;;0.70;0.60;;;5.40;99.90;;;;;;5124583;27;20023;-64
2021/11/12 08:56:23;;;;;;;0.70;0.70;;;5.60;99.90;;;;;;5132773;28;20019;-64
2021/11/12 08:58:51;;;;;;;0.85;0.75;;;5.80;99.90;;;;;;5110959;27;20030;-64
2021/11/12 09:01:18;;;;;;;0.95;0.80;;;6.00;99.90;;;;;;5116590;28;20629;-65
2021/11/12 09:03:44;;;;;;;4.43;0.85;;;6.10;99.90;;;;;;5121880;28;20027;-65
2021/11/12 09:06:10;;;;;;;1.23;0.85;;;6.30;99.90;;;;;;5126997;28;20471;-64
2021/11/12 09:08:37;;;;;;;0.60;0.60;;;6.90;99.90;;;;;;5120116;28;20079;-64
2021/11/12 09:11:05;;;;;;;0.68;0.60;;;7.10;99.90;;;;;;5118109;28;20038;-65
2021/11/12 09:13:38;;;;;;;2.50;0.68;;;7.00;99.90;;;;;;5124681;28;20148;-63
2021/11/12 09:16:09;;;;;;;1.27;0.77;;;6.40;99.90;;;;;;5125944;27;20035;-64
2021/11/12 09:18:35;;;;;;;0.60;0.60;;;5.40;99.90;;;;;;5117545;28;20024;-64
2021/11/12 09:21:01;;;;;;;1.05;0.70;;;4.60;99.90;;;;;;5118967;28;20034;-64
2021/11/12 09:23:27;;;;;;;1.38;0.70;;;4.00;99.90;;;;;;5129868;28;20040;-64
2021/11/12 09:25:52;;;;;;;1.00;0.80;;;3.70;99.90;;;;;;5121298;27;20028;-64
2021/11/12 09:28:18;;;;;;;0.95;0.70;;;3.40;99.90;;;;;;5128015;27;20022;-64
2021/11/12 09:30:45;;;;;;;3.45;0.90;;;3.20;99.90;;;;;;5116937;27;20107;-64
2021/11/12 09:33:11;;;;;;;2.65;0.60;;;3.10;99.90;;;;;;5125265;27;20115;-64
2021/11/12 09:35:37;;;;;;;0.60;0.60;;;3.00;99.90;;;;;;5124032;28;20050;-65
2021/11/12 09:38:03;;;;;;;0.60;0.60;;;3.00;99.90;;;;;;5124525;28;20054;-65
2021/11/12 09:40:29;;;;;;;0.60;0.60;;;3.00;99.90;;;;;;5124143;28;20019;-65
2021/11/12 09:42:55;;;;;;;2.03;0.77;;;3.00;99.90;;;;;;5127070;28;20019;-66
2021/11/12 09:45:21;;;;;;;1.02;0.85;;;3.10;99.90;;;;;;5131484;27;20038;-64
2021/11/12 09:47:48;;;;;;;1.95;0.70;;;3.10;99.90;;;;;;5120719;27;20106;-64
2021/11/12 09:50:24;;;;;;;1.77;0.80;;;3.50;99.90;;;;;;5135190;27;20050;-64
2021/11/12 09:52:50;;;;;;;0.60;0.60;;;4.40;99.90;;;;;;5135197;27;20409;-63
2021/11/12 09:55:19;;;;;;;4.53;0.90;;;4.40;99.90;;;;;;5125799;27;20085;-63
2021/11/12 09:57:45;;;;;;;1.10;0.80;;;4.10;99.90;;;;;;5130168;27;20069;-63
2021/11/12 10:00:15;;;;;;;1.02;0.82;;;3.80;99.90;;;;;;5116823;27;20024;-63
2021/11/12 10:02:43;;;;;;;0.93;0.80;;;3.60;99.90;;;;;;5128678;27;20088;-63
2021/11/12 10:05:13;;;;;;;1.17;1.02;;;3.40;99.90;;;;;;5123169;27;20031;-63
2021/11/12 10:07:39;;;;;;;1.33;0.98;;;3.20;99.90;;;;;;5121407;27;20615;-63
2021/11/12 10:10:14;;;;;;;1.10;1.00;;;3.10;99.90;;;;;;5131856;27;20038;-64
2021/11/12 10:12:46;;;;;;;0.90;0.90;;;3.00;99.90;;;;;;5135230;27;20558;-63
2021/11/12 10:15:31;;;;;;;0.70;0.70;;;2.90;99.90;;;;;;5125437;27;20030;-64
2021/11/12 10:18:08;;;;;;;0.73;0.73;;;2.90;99.90;;;;;;5126295;27;20032;-62
2021/11/12 10:20:35;;;;;;;1.52;0.90;;;2.80;99.90;;;;;;5131837;27;20019;-63
2021/11/12 10:23:16;;;;;;;3.58;1.02;;;2.80;99.90;;;;;;5122651;27;20068;-63
2021/11/12 10:26:01;;;;;;;3.67;0.80;;;2.80;99.90;;;;;;5125637;27;20024;-64
2021/11/12 10:28:37;;;;;;;0.73;0.70;;;2.80;99.90;;;;;;5132731;27;20428;-64
2021/11/12 10:31:16;;;;;;;1.17;0.80;;;2.90;99.90;;;;;;5118556;27;20030;-63
2021/11/12 10:33:43;;;;;;;1.23;0.70;;;2.90;99.90;;;;;;5128368;27;20061;-63
2021/11/12 10:36:09;;;;;;;1.42;0.70;;;2.90;99.90;;;;;;5126107;27;20035;-63
2021/11/12 10:38:41;;;;;;;0.70;0.70;;;2.80;99.90;;;;;;5124916;27;20019;-63
2021/11/12 10:41:21;;;;;;;0.75;0.70;;;2.80;99.90;;;;;;5131916;27;20490;-63
2021/11/12 10:43:48;;;;;;;0.60;0.50;;;2.80;99.90;;;;;;5126666;27;20032;-63
2021/11/12 10:46:14;;;;;;;0.80;0.80;;;2.80;99.90;;;;;;5119306;27;20035;-63
2021/11/12 10:48:39;;;;;;;0.73;0.73;;;2.80;99.90;;;;;;5132124;27;20023;-63
2021/11/12 10:51:23;;;;;;;0.60;0.60;;;2.90;99.90;;;;;;5129931;27;20509;-64
2021/11/12 10:53:53;;;;;;;2.05;0.60;;;2.90;99.90;;;;;;5122031;27;20113;-62
2021/11/12 10:56:21;;;;;;;0.68;0.60;;;2.90;99.90;;;;;;5121225;27;20104;-63
2021/11/12 10:59:05;;;;;;;0.60;0.60;;;2.90;99.90;;;;;;5129449;27;20034;-63
2021/11/12 11:01:38;;;;;;;0.60;0.60;;;3.00;99.90;;;;;;5139782;27;20444;-62
2021/11/12 11:04:39;;;;;;;1.60;0.70;;;3.00;99.90;;;;;;5125883;27;20027;-62
2021/11/12 11:07:22;;;;;;;1.17;0.70;;;4.10;99.90;;;;;;5049960;28;20021;-63
2021/11/12 11:09:48;;;;;;;0.80;0.80;;;4.30;99.90;;;;;;5117941;27;20454;-63
2021/11/12 11:12:33;;;;;;;2.63;0.70;;;4.00;99.90;;;;;;5128483;27;20070;-62
2021/11/12 11:15:15;;;;;;;0.80;0.80;;;3.80;99.90;;;;;;5133661;27;20035;-62
2021/11/12 11:17:44;;;;;;;3.75;0.88;;;3.60;99.90;;;;;;5118760;27;20067;-62
2021/11/12 11:20:14;;;;;;;0.70;0.70;;;3.50;99.90;;;;;;5127780;27;20027;-62
2021/11/12 11:22:55;;;;;;;;;;;3.40;99.90;;;;;;5126748;27;20027;-62
2021/11/12 11:25:23;;;;;;;0.95;0.90;;;3.40;99.90;;;;;;5127041;27;19931;-62
2021/11/12 11:27:50;;;;;;;2.92;0.80;;;3.30;99.90;;;;;;5120437;27;20558;-62
2021/11/12 11:30:16;;;;;;;1.25;0.77;;;3.30;99.90;;;;;;5124788;27;20078;-62
2021/11/12 11:32:44;;;;;;;0.90;0.73;;;3.20;99.90;;;;;;5127536;27;20475;-62
2021/11/12 11:35:10;;;;;;;1.40;0.73;;;3.20;99.90;;;;;;5125343;27;20023;-62
2021/11/12 11:37:38;;;;;;;0.80;0.80;;;3.20;99.90;;;;;;5124277;27;20030;-62
2021/11/12 11:40:05;;;;;;;1.05;1.00;;;3.20;99.90;;;;;;5125367;27;20019;-62
2021/11/12 11:42:31;;;;;;;0.90;0.90;;;3.20;99.90;;;;;;5127099;27;20060;-63
2021/11/12 11:44:58;;;;;;;1.50;0.90;;;3.20;99.90;;;;;;5127299;27;20027;-62
2021/11/12 11:47:25;;;;;;;1.20;0.88;;;3.20;99.90;;;;;;5130377;27;20027;-63
2021/11/12 11:49:52;;;;;;;1.80;1.02;;;3.20;99.90;;;;;;5112908;28;20031;-62
2021/11/12 11:52:29;;;;;;;0.80;0.80;;;3.20;99.90;;;;;;5127595;27;20019;-63
2021/11/12 11:54:55;;;;;;;2.13;0.95;;;3.20;99.90;;;;;;5124787;27;20027;-62
2021/11/12 11:57:24;;;;;;;1.40;1.00;;;3.30;99.90;;;;;;5126400;27;20030;-62
2021/11/12 12:00:23;;;;;;;1.10;0.80;;;3.30;99.90;;;;;;5119099;27;20122;-62
2021/11/12 12:03:24;;;;;;;1.90;1.00;;;3.30;99.90;;;;;;5129257;27;20044;-62
2021/11/12 12:06:10;;;;;;;3.35;1.20;;;3.30;99.90;;;;;;5126690;27;20045;-62
2021/11/12 12:08:49;;;;;;;1.20;1.10;;;3.30;99.90;;;;;;5121533;27;20025;-62
2021/11/12 12:11:17;;;;;;;1.40;1.10;;;3.30;99.90;;;;;;5118328;27;20548;-62
2021/11/12 12:13:43;;;;;;;1.33;1.10;;;3.20;99.90;;;;;;5123449;27;20028;-62
2021/11/12 12:16:09;;;;;;;0.90;0.90;;;3.20;99.90;;;;;;5127010;27;20023;-62
2021/11/12 12:18:46;;;;;;;2.58;0.95;;;3.20;99.90;;;;;;5119588;27;20023;-62
2021/11/12 12:21:41;;;;;;;1.52;0.90;;;3.20;99.90;;;;;;5118678;27;20074;-62
2021/11/12 13:23:00;;;;;;;3.90;1.10;;;2.50;99.90;;;;;;5136846;27;20034;-61
2021/11/12 13:25:38;;;;;;;1.98;0.90;;;4.60;99.90;;;;;;5136112;27;20603;-63
2021/11/12 13:28:27;;;;;;;2.95;0.80;;;4.90;99.90;;;;;;5136596;27;20026;-63
2021/11/12 13:30:53;;;;;;;4.65;1.10;;;4.30;99.90;;;;;;5136909;27;20031;-63
2021/11/12 13:33:26;;;;;;;1.70;1.00;;;5.30;99.90;;;;;;5136709;27;20494;-63
2021/11/12 13:35:53;;;;;;;1.90;1.10;;;5.40;99.90;;;;;;5137152;27;20484;-63
2021/11/12 13:38:19;;;;;;;2.90;1.73;;;4.90;99.90;;;;;;5136623;27;20030;-64
2021/11/12 13:40:45;;;;;;;2.25;1.63;;;4.30;99.90;;;;;;5136658;27;20412;-62
2021/11/12 13:43:25;;;;;;;2.30;1.20;;;4.00;99.90;;;;;;5136544;27;20027;-62
2021/11/12 13:45:58;;;;;;;1.90;1.20;;;3.90;99.90;;;;;;5136386;27;20092;-62
2021/11/12 13:48:24;;;;;;;0.80;0.80;;;3.60;99.90;;;;;;5136660;27;20350;-63
2021/11/12 13:51:00;;;;;;;2.55;0.85;;;3.40;99.90;;;;;;5136317;27;20428;-63
2021/11/12 13:53:31;;;;;;;1.23;0.90;;;3.20;99.90;;;;;;5136447;27;20037;-62
2021/11/12 13:55:59;;;;;;;1.00;0.70;;;3.10;99.90;;;;;;5136454;27;20023;-62
2021/11/12 13:58:26;;;;;;;1.67;1.05;;;3.00;99.90;;;;;;5136160;27;20487;-62
2021/11/12 14:00:53;;;;;;;5.05;1.08;;;2.90;99.90;;;;;;5135752;27;20114;-63
2021/11/12 14:03:39;;;;;;;2.35;1.80;;;3.00;99.90;;;;;;5136106;27;20030;-62
2021/11/12 14:06:09;;;;;;;1.40;1.30;;;3.20;99.90;;;;;;5136000;27;20026;-62
2021/11/12 14:08:37;;;;;;;;;;;3.00;99.90;;;;;;5136401;27;20031;-62
2021/11/12 14:11:13;;;;;;;19.23;10.85;;;2.80;99.90;;;;;;5135885;27;19911;-62
2021/11/12 14:13:40;;;;;;;18.42;8.52;;;2.60;99.90;;;;;;5135828;27;20023;-62
2021/11/12 14:16:26;;;;;;;6.97;4.10;;;2.40;99.90;;;;;;5135808;27;20031;-62
2021/11/12 14:21:43;;;;;;;1.95;1.73;;;2.20;99.90;;;;;;5124877;27;20020;-62
2021/11/12 14:27:12;;;;;;;2.33;1.42;;;2.10;99.90;;;;;;5123875;27;20027;-62
2021/11/12 14:35:24;;;;;;;1.50;1.00;;;1.90;99.90;;;;;;5126145;27;20061;-62
2021/11/12 14:46:38;;;;;;;1.90;1.60;;;1.50;99.90;;;;;;5124877;27;20046;-62
2021/11/12 14:54:49;;;;;;;5.82;2.47;;;1.40;99.90;;;;;;5123754;27;20051;-62
2021/11/12 14:57:27;;;;;;;3.75;2.28;;;1.30;99.90;;;;;;5127982;27;20022;-62
2021/11/12 15:00:01;;;;;;;4.25;2.15;;;1.50;99.90;;;;;;5143640;27;20027;-62
2021/11/12 15:02:28;;;;;;;5.38;2.38;;;1.50;99.90;;;;;;5142926;27;20039;-62
2021/11/12 15:04:56;;;;;;;5.10;3.13;;;1.40;99.90;;;;;;5143596;27;20022;-62
2021/11/12 15:07:26;;;;;;;4.40;3.00;;;1.40;99.90;;;;;;5138901;27;20204;-62
2021/11/12 15:09:52;;;;;;;3.00;2.50;;;1.30;99.90;;;;;;5143938;27;20030;-62
2021/11/12 15:12:18;;;;;;;6.13;2.63;;;1.20;99.90;;;;;;5144079;27;20043;-63
2021/11/12 15:14:55;;;;;;;4.25;2.50;;;1.10;99.90;;;;;;5134645;27;20031;-62
2021/11/12 15:17:22;;;;;;;3.17;2.35;;;1.10;99.90;;;;;;5134779;27;20055;-62
2021/11/12 15:19:48;;;;;;;5.97;2.15;;;1.00;99.90;;;;;;5134408;27;20102;-62
2021/11/12 15:30:41;;;;;;;3.05;1.50;;;1.00;99.90;;;;;;5111068;27;20036;-62
2021/11/12 15:33:13;;;;;;;2.17;1.60;;;1.00;99.90;;;;;;5129543;27;20028;-63
2021/11/12 15:35:40;;;;;;;2.15;1.58;;;1.00;99.90;;;;;;5133461;27;20027;-62
2021/11/12 15:38:18;;;;;;;2.80;1.50;;;0.90;99.90;;;;;;5145581;27;20034;-62
2021/11/12 15:40:54;;;;;;;2.50;1.75;;;0.80;99.90;;;;;;5141959;27;20050;-62
2021/11/12 15:43:24;;;;;;;2.45;1.92;;;0.70;99.90;;;;;;5136737;27;20030;-62
2021/11/12 15:45:54;;;;;;;2.00;1.70;;;0.70;99.90;;;;;;5127395;27;20028;-62
2021/11/12 15:48:23;;;;;;;4.65;2.05;;;0.60;99.90;;;;;;5147712;27;20253;-62
2021/11/12 15:53:37;;;;;;;1.85;1.42;;;0.60;99.90;;;;;;5134453;27;20459;-62
2021/11/12 15:58:56;;;;;;;2.20;1.33;;;0.60;99.90;;;;;;5134160;27;20023;-62
2021/11/12 16:14:33;;;;;;;3.47;1.77;;;0.50;99.90;;;;;;5132763;27;20094;-62
2021/11/12 16:19:56;;;;;;;4.15;1.73;;;0.40;99.90;;;;;;5133778;27;20107;-62
2021/11/12 16:27:17;;;;;;;3.17;1.77;;;0.30;99.90;;;;;;5133147;27;20028;-63
2021/11/12 16:29:48;;;;;;;3.33;1.63;;;0.30;99.90;;;;;;5133064;27;20024;-62
2021/11/12 16:32:23;;;;;;;1.85;1.40;;;0.40;99.90;;;;;;5131983;27;20035;-63
2021/11/12 16:34:53;;;;;;;2.22;1.55;;;0.40;99.90;;;;;;5133153;27;20098;-63
2021/11/12 16:37:21;;;;;;;2.53;1.58;;;0.30;99.90;;;;;;5133629;27;20022;-63
2021/11/12 16:44:55;;;;;;;4.00;2.10;;;-0.40;99.90;;;;;;5133201;27;20047;-62
2021/11/12 16:57:46;;;;;;;1.88;1.25;;;0.80;99.90;;;;;;5133023;27;20068;-63
2021/11/12 17:02:58;;;;;;;2.65;1.10;;;0.60;99.90;;;;;;5132800;28;20071;-63
2021/11/12 17:05:34;;;;;;;2.28;1.50;;;0.50;99.90;;;;;;5133304;28;20034;-63
2021/11/12 17:08:32;;;;;;;7.32;1.60;;;0.40;99.90;;;;;;5132759;28;20507;-63
2021/11/12 17:48:37;;;;;;;6.03;2.92;;;-0.30;99.90;;;;;;5132824;28;20371;-63
2021/11/12 18:04:31;;;;;;;6.18;3.40;;;-0.50;99.90;;;;;;5132773;28;20036;-63
2021/11/12 21:45:21;;;;;;;1.52;1.00;;;-0.50;99.90;;;;;;5126876;27;20034;-63
2021/11/12 21:47:47;;;;;;;1.83;1.10;;;-0.60;99.90;;;;;;5132606;27;20018;-63
2021/11/12 21:50:13;;;;;;;1.60;1.10;;;-0.70;99.90;;;;;;5132901;27;20080;-63
2021/11/12 21:52:39;;;;;;;1.20;0.98;;;-0.80;99.90;;;;;;5135493;27;20026;-63
2021/11/12 21:55:07;;;;;;;1.67;1.05;;;-0.90;99.90;;;;;;5139352;27;20508;-63
2021/11/12 21:57:34;;;;;;;1.52;1.10;;;-0.90;99.90;;;;;;5137814;27;20037;-63
2021/11/12 22:00:00;;;;;;;2.25;1.20;;;-1.00;99.90;;;;;;5136313;27;20034;-63
2021/11/12 22:02:26;;;;;;;3.30;0.93;;;-1.00;99.90;;;;;;5136134;27;20444;-63
2021/11/12 22:04:53;;;;;;;1.38;0.90;;;-1.10;99.90;;;;;;5136121;27;20391;-63
2021/11/12 22:07:18;;;;;;;3.03;0.90;;;-1.20;99.90;;;;;;5135929;27;20031;-63
2021/11/12 22:09:44;;;;;;;0.90;0.90;;;-1.20;99.90;;;;;;5136363;27;20083;-63
2021/11/12 22:12:10;;;;;;;1.52;1.15;;;-1.30;99.90;;;;;;5135731;27;20130;-63
2021/11/12 22:14:36;;;;;;;0.85;0.82;;;-1.40;99.90;;;;;;5136264;27;20027;-63
2021/11/12 22:17:02;;;;;;;2.15;1.02;;;-1.40;99.90;;;;;;5138239;27;20026;-63
2021/11/12 22:19:28;;;;;;;2.22;0.90;;;-1.40;99.90;;;;;;5138659;27;20026;-63
2021/11/12 22:21:54;;;;;;;4.00;1.10;;;-1.50;99.90;;;;;;5144398;27;20019;-63
2021/11/12 22:24:20;;;;;;;1.98;0.95;;;-1.50;99.90;;;;;;5137822;27;20471;-63
2021/11/12 22:26:49;;;;;;;1.08;0.90;;;-1.50;99.90;;;;;;5131268;27;20032;-63
2021/11/12 22:29:16;;;;;;;1.65;0.80;;;-1.50;99.90;;;;;;5153021;27;20050;-64
2021/11/12 22:31:42;;;;;;;1.20;0.80;;;-1.60;99.90;;;;;;5155154;27;20121;-63
2021/11/12 22:34:07;;;;;;;2.08;0.90;;;-1.70;99.90;;;;;;5129476;27;20106;-63
2021/11/12 22:36:33;;;;;;;1.00;0.90;;;-1.70;99.90;;;;;;5123668;27;20384;-63
2021/11/12 22:38:59;;;;;;;1.85;0.85;;;-1.70;99.90;;;;;;5127563;27;20015;-63
2021/11/12 22:41:26;;;;;;;1.00;0.80;;;-1.70;99.90;;;;;;5136233;27;20042;-63
2021/11/12 22:43:59;;;;;;;1.70;0.90;;;-1.80;99.90;;;;;;5133943;27;20024;-63
2021/11/12 22:46:31;;;;;;;0.90;0.70;;;-1.80;99.90;;;;;;5134852;27;20027;-63
2021/11/12 22:48:57;;;;;;;1.33;0.77;;;-1.80;99.90;;;;;;5140634;27;20547;-63
2021/11/12 22:51:23;;;;;;;0.75;0.70;;;-1.90;99.90;;;;;;5143952;27;20039;-63
2021/11/12 22:53:49;;;;;;;3.30;0.90;;;-1.90;99.90;;;;;;5142628;27;20390;-63
2021/11/12 22:56:15;;;;;;;2.30;0.80;;;-1.90;99.90;;;;;;5145262;27;20214;-63
2021/11/12 22:58:42;;;;;;;0.73;0.73;;;-1.90;99.90;;;;;;5145815;27;20091;-63
2021/11/12 23:01:16;;;;;;;2.20;0.77;;;-1.90;99.90;;;;;;5143782;27;20035;-63
2021/11/12 23:03:42;;;;;;;2.45;1.20;;;-1.90;99.90;;;;;;5155854;27;20060;-63
2021/11/12 23:06:08;;;;;;;1.08;0.80;;;-1.90;99.90;;;;;;5155761;27;20360;-63
2021/11/12 23:08:35;;;;;;;1.35;0.90;;;-1.90;99.90;;;;;;5155787;27;20027;-63
2021/11/12 23:11:01;;;;;;;1.50;0.93;;;-1.90;99.90;;;;;;5155344;27;20652;-63
2021/11/12 23:13:28;;;;;;;0.85;0.85;;;-1.90;99.90;;;;;;5155579;27;20482;-63
2021/11/12 23:15:55;;;;;;;3.50;1.13;;;-1.90;99.90;;;;;;5155411;27;20443;-63
2021/11/12 23:18:26;;;;;;;2.22;0.80;;;-1.90;99.90;;;;;;5155218;27;20034;-63
2021/11/12 23:20:52;;;;;;;1.15;1.00;;;-1.80;99.90;;;;;;5155485;27;20424;-63
2021/11/12 23:23:18;;;;;;;2.25;1.00;;;-1.80;99.90;;;;;;5155126;27;20086;-63
2021/11/12 23:25:44;;;;;;;0.93;0.80;;;-1.90;99.90;;;;;;5155594;27;20026;-63
2021/11/12 23:28:11;;;;;;;0.82;0.82;;;-1.90;99.90;;;;;;5155082;27;20572;-63
2021/11/12 23:30:37;;;;;;;3.92;1.10;;;-1.90;99.90;;;;;;5155491;27;20031;-63
2021/11/12 23:33:03;;;;;;;1.48;0.90;;;-1.90;99.90;;;;;;5155049;27;20076;-63
2021/11/12 23:35:30;;;;;;;0.88;0.88;;;-1.90;99.90;;;;;;5155218;27;20027;-63
2021/11/12 23:37:55;;;;;;;0.70;0.70;;;-2.00;99.90;;;;;;5155089;27;20423;-64
2021/11/12 23:40:22;;;;;;;1.10;1.00;;;-1.90;99.90;;;;;;5154977;27;20058;-64
2021/11/12 23:42:50;;;;;;;2.13;0.80;;;-1.90;99.90;;;;;;5155276;27;20072;-65